Time;durP1;ratioP1;P1;durP2;ratioP2;P2;SDS_P1;SDS_P2;PMS_P1;PMS_P2;Temp;Humidity;BMP_temperature;BMP_pressure;BME280_temperature;BME280_humidity;BME280_pressure;Samples;Min_cycle;Max_cycle;Signal;HPM_P1;HPM_P2
2021/05/21 00:01:34;;;;;;;7.70;5.80;;;;;;;12.52;61.45;100218.22;4865907;28;96995;-84
2021/05/21 00:03:59;;;;;;;8.98;6.13;;;;;;;12.40;61.85;100209.09;4866993;28;99955;-83
2021/05/21 00:06:25;;;;;;;12.32;6.85;;;;;;;12.35;62.05;100208.41;4866374;28;99409;-84
2021/05/21 00:08:50;;;;;;;9.85;7.68;;;;;;;12.45;61.45;100201.84;4898795;28;97087;-85
2021/05/21 00:11:16;;;;;;;10.70;7.78;;;;;;;12.36;62.02;100194.34;4883782;28;97206;-83
2021/05/21 00:13:42;;;;;;;11.32;8.85;;;;;;;12.23;62.41;100201.06;4882162;28;99601;-83
2021/05/21 00:16:07;;;;;;;11.52;9.68;;;;;;;12.22;62.08;100197.56;4883310;28;97248;-82
2021/05/21 00:18:33;;;;;;;12.02;10.82;;;;;;;12.14;62.69;100196.19;4882608;28;96648;-82
2021/05/21 00:20:59;;;;;;;11.00;9.90;;;;;;;12.06;63.00;100191.25;4885522;28;96550;-82
2021/05/21 00:23:24;;;;;;;11.68;9.23;;;;;;;12.13;62.38;100182.19;4884856;28;96907;-81
2021/05/21 00:25:50;;;;;;;10.70;9.60;;;;;;;12.13;62.40;100181.31;4884603;28;99637;-83
2021/05/21 00:28:15;;;;;;;14.23;10.60;;;;;;;12.23;61.92;100182.63;4868486;28;96865;-82
2021/05/21 00:30:41;;;;;;;11.88;10.77;;;;;;;12.26;61.38;100182.50;4885827;28;97089;-82
2021/05/21 00:33:07;;;;;;;11.85;10.57;;;;;;;12.34;61.58;100179.53;4883332;28;97027;-83
2021/05/21 00:35:32;;;;;;;12.85;11.65;;;;;;;12.20;61.87;100186.25;4883777;28;96842;-82
2021/05/21 00:37:58;;;;;;;11.93;10.82;;;;;;;12.11;61.86;100181.38;4886234;28;96769;-80
2021/05/21 00:40:24;;;;;;;11.00;9.90;;;;;;;12.05;62.41;100175.53;4901013;28;97084;-80
2021/05/21 00:42:49;;;;;;;10.77;9.75;;;;;;;12.26;62.15;100176.38;4885027;28;99267;-81
2021/05/21 00:45:15;;;;;;;14.10;10.48;;;;;;;12.24;61.67;100179.06;4891397;28;99192;-80
2021/05/21 00:47:44;;;;;;;13.45;10.98;;;;;;;12.00;62.91;100173.09;4884769;28;95893;-80
2021/05/21 00:53:05;;;;;;;11.75;10.35;;;;;;;11.69;63.44;100165.56;4918763;28;96552;-85
2021/05/21 00:55:32;;;;;;;13.98;11.43;;;;;;;11.84;62.84;100175.47;4888468;28;99488;-85
2021/05/21 00:57:58;;;;;;;14.48;10.82;;;;;;;11.68;63.43;100169.97;4889325;28;96413;-85
2021/05/21 01:00:29;;;;;;;15.35;13.88;;;;;;;11.95;62.56;100164.53;4889459;28;96256;-85
2021/05/21 01:02:54;;;;;;;10.07;6.35;;;;;;;11.90;62.43;100166.53;4872890;28;99672;-85
2021/05/21 01:05:20;;;;;;;11.10;7.03;;;;;;;11.76;62.91;100162.63;4889509;28;99413;-85
2021/05/21 01:07:46;;;;;;;8.55;6.03;;;;;;;11.63;63.24;100164.03;4886722;28;96528;-86
2021/05/21 01:10:13;;;;;;;9.00;6.65;;;;;;;11.67;63.04;100162.16;4872512;28;96498;-86
2021/05/21 01:15:33;;;;;;;10.93;7.03;;;;;;;11.46;63.44;100159.50;4920626;28;96147;-86
2021/05/21 01:17:59;;;;;;;9.93;6.47;;;;;;;11.45;63.85;100152.50;4906529;28;96269;-86
2021/05/21 01:23:00;;;;;;;8.07;6.28;;;;;;;11.55;63.43;100145.13;4898717;28;96366;-85
2021/05/21 01:25:26;;;;;;;10.02;6.57;;;;;;;11.63;63.12;100148.28;4883481;28;99442;-85
2021/05/21 01:27:54;;;;;;;9.85;6.72;;;;;;;11.56;63.49;100145.06;4884144;28;95904;-86
2021/05/21 01:30:20;;;;;;;9.10;6.82;;;;;;;11.35;63.99;100140.66;4868364;28;96537;-85
2021/05/21 01:32:47;;;;;;;10.65;6.70;;;;;;;11.38;64.07;100144.94;4883256;28;99641;-86
2021/05/21 01:35:16;;;;;;;12.32;6.28;;;;;;;11.40;64.21;100146.56;4883776;28;96899;-86
2021/05/21 01:37:45;;;;;;;13.30;6.55;;;;;;;11.40;63.97;100137.84;4884116;28;96717;-86
2021/05/21 01:40:13;;;;;;;12.13;7.25;;;;;;;11.42;64.19;100136.88;4883583;28;96487;-86
2021/05/21 01:42:40;;;;;;;11.70;7.10;;;;;;;11.57;63.70;100144.13;4883681;28;96598;-86
2021/05/21 01:45:07;;;;;;;9.65;6.78;;;;;;;11.43;64.05;100138.59;4867987;28;99685;-86
2021/05/21 01:47:33;;;;;;;8.30;5.95;;;;;;;11.38;64.25;100127.41;4884653;28;96779;-86
2021/05/21 01:50:00;;;;;;;8.20;6.45;;;;;;;11.40;63.90;100130.81;4884360;28;96571;-86
2021/05/21 01:52:26;;;;;;;11.25;6.85;;;;;;;11.57;63.06;100138.88;4899193;28;96619;-86
2021/05/21 01:54:52;;;;;;;9.02;6.53;;;;;;;11.45;64.02;100141.16;4869695;28;99943;-86
2021/05/21 01:57:18;;;;;;;11.88;7.10;;;;;;;11.45;63.80;100144.63;4902064;28;96900;-86
2021/05/21 01:59:44;;;;;;;9.18;6.72;;;;;;;11.09;64.58;100139.06;4886278;28;96710;-86
2021/05/21 02:02:10;;;;;;;11.52;6.55;;;;;;;11.20;64.66;100133.38;4903008;28;96860;-86
2021/05/21 02:04:38;;;;;;;9.82;7.07;;;;;;;11.20;64.56;100134.25;4870664;28;99468;-86
2021/05/21 02:07:11;;;;;;;9.68;6.78;;;;;;;11.22;64.20;100135.03;4888460;28;96238;-86
2021/05/21 02:09:53;;;;;;;8.88;6.00;;;;;;;11.31;64.07;100126.81;4904107;28;96474;-86
2021/05/21 02:12:22;;;;;;;8.82;5.70;;;;;;;11.25;64.52;100129.66;4889849;28;99789;-86
2021/05/21 02:14:48;;;;;;;9.82;6.32;;;;;;;11.22;64.28;100119.25;4888596;28;99225;-86
2021/05/21 02:17:14;;;;;;;11.02;6.78;;;;;;;11.16;64.75;100132.66;4920102;28;96649;-86
2021/05/21 02:19:40;;;;;;;9.80;6.00;;;;;;;11.12;65.00;100124.97;4904531;28;95965;-86
2021/05/21 02:22:07;;;;;;;10.82;7.20;;;;;;;10.99;65.28;100108.81;4887937;28;100108;-86
2021/05/21 02:24:34;;;;;;;6.35;5.75;;;;;;;10.91;65.92;100109.13;4919876;28;96648;-86
2021/05/21 02:27:00;;;;;;;9.23;6.13;;;;;;;10.91;65.81;100121.38;4888546;28;96648;-86
2021/05/21 02:29:26;;;;;;;9.02;5.70;;;;;;;10.93;65.20;100102.03;4892561;28;96460;-86
2021/05/21 02:31:51;;;;;;;7.63;5.72;;;;;;;11.09;65.34;100118.91;4900701;28;96904;-86
2021/05/21 02:34:18;;;;;;;7.57;5.18;;;;;;;11.16;65.04;100095.03;4900043;28;100480;-86
2021/05/21 02:36:44;;;;;;;6.93;5.68;;;;;;;11.15;64.47;100094.16;4885394;28;96799;-86
2021/05/21 02:39:12;;;;;;;8.38;6.28;;;;;;;11.05;65.12;100100.69;4885140;28;96955;-85
2021/05/21 02:41:38;;;;;;;8.30;5.88;;;;;;;11.10;64.91;100086.47;4868586;28;100071;-86
2021/05/21 02:44:04;;;;;;;9.77;5.70;;;;;;;11.19;64.32;100089.63;4869573;28;99568;-86
2021/05/21 02:46:30;;;;;;;8.95;6.07;;;;;;;11.09;64.88;100108.41;4868567;28;96841;-86
2021/05/21 02:48:56;;;;;;;11.43;6.18;;;;;;;11.00;65.22;100084.28;4886447;28;96661;-86
2021/05/21 02:51:21;;;;;;;11.85;5.90;;;;;;;11.21;65.25;100087.81;4865011;29;99804;-86
2021/05/21 02:53:47;;;;;;;10.63;5.88;;;;;;;11.13;65.23;100079.38;4880838;28;96769;-86
2021/05/21 02:56:13;;;;;;;8.57;5.80;;;;;;;10.94;65.71;100081.88;4865776;29;96535;-86
2021/05/21 02:58:39;;;;;;;9.32;5.95;;;;;;;10.95;65.89;100076.56;4881359;28;96592;-86
2021/05/21 03:01:05;;;;;;;8.52;4.97;;;;;;;11.00;65.65;100065.91;4865436;29;99606;-86
2021/05/21 03:03:31;;;;;;;8.45;5.40;;;;;;;10.90;65.64;100061.91;4865750;29;100834;-86
2021/05/21 03:05:57;;;;;;;7.95;5.13;;;;;;;10.80;66.47;100070.16;4880332;29;96438;-86
2021/05/21 03:08:23;;;;;;;13.05;7.50;;;;;;;10.84;65.97;100070.88;4865485;29;96058;-86
2021/05/21 03:10:49;;;;;;;11.13;5.50;;;;;;;10.93;65.88;100062.63;4870170;28;99395;-86
2021/05/21 03:13:15;;;;;;;6.78;5.35;;;;;;;10.71;66.69;100070.50;4903502;28;96517;-86
2021/05/21 03:15:42;;;;;;;9.48;5.57;;;;;;;10.87;65.97;100066.34;4902774;28;96935;-85
2021/05/21 03:18:15;;;;;;;9.68;4.93;;;;;;;10.91;65.55;100067.13;4887394;28;96465;-86
2021/05/21 03:20:41;;;;;;;9.27;5.05;;;;;;;11.08;65.05;100069.94;4902828;28;99600;-86
2021/05/21 03:23:08;;;;;;;6.55;5.47;;;;;;;11.02;65.04;100064.88;4890322;28;99292;-86
2021/05/21 03:25:35;;;;;;;9.07;5.35;;;;;;;10.97;65.11;100060.75;4906174;28;95807;-86
2021/05/21 03:28:01;;;;;;;10.35;5.60;;;;;;;10.91;65.73;100055.72;4890849;28;96545;-86
2021/05/21 03:30:27;;;;;;;6.65;5.28;;;;;;;10.86;65.57;100072.53;4904203;28;96982;-86
2021/05/21 03:32:53;;;;;;;5.78;4.90;;;;;;;10.84;65.91;100063.00;4903240;28;99792;-85
2021/05/21 03:35:19;;;;;;;9.60;5.60;;;;;;;10.90;65.62;100069.78;4920967;28;96625;-86
2021/05/21 03:37:45;;;;;;;9.00;5.07;;;;;;;10.91;65.68;100067.13;4906700;28;96909;-86
2021/05/21 03:40:12;;;;;;;8.38;5.80;;;;;;;10.75;65.88;100072.09;4889680;28;99930;-86
2021/05/21 03:42:38;;;;;;;9.65;5.65;;;;;;;10.82;66.18;100062.19;4889631;28;99589;-86
2021/05/21 03:45:05;;;;;;;8.90;5.60;;;;;;;10.87;65.83;100062.88;4906557;28;96476;-86
2021/05/21 03:47:33;;;;;;;11.52;5.80;;;;;;;10.78;66.20;100053.59;4906990;28;96440;-86
2021/05/21 03:49:59;;;;;;;9.88;5.82;;;;;;;10.64;66.27;100055.91;4906643;28;99629;-87
2021/05/21 03:55:20;;;;;;;8.77;5.22;;;;;;;10.76;66.31;100050.19;5131481;23;99200;-85
2021/05/21 03:57:48;;;;;;;9.02;5.63;;;;;;;10.73;66.34;100054.69;4891534;28;96417;-86
2021/05/21 04:00:17;;;;;;;6.65;5.07;;;;;;;10.73;66.98;100067.81;5140304;23;101055;-86
2021/05/21 04:02:44;;;;;;;9.50;6.05;;;;;;;10.79;66.48;100055.31;4887936;28;99232;-87
2021/05/21 04:05:11;;;;;;;12.50;11.30;;;;;;;10.78;67.09;100056.22;4888589;28;96441;-86
2021/05/21 04:07:37;;;;;;;15.45;11.07;;;;;;;10.75;66.72;100051.09;4872560;28;96357;-86
2021/05/21 04:10:04;;;;;;;11.02;10.02;;;;;;;10.70;66.92;100032.03;4871771;28;99029;-87
2021/05/21 04:12:30;;;;;;;11.00;10.00;;;;;;;10.72;67.00;100045.09;4888751;28;99378;-86
2021/05/21 04:14:56;;;;;;;11.00;9.20;;;;;;;10.69;67.03;100046.06;4854055;28;96515;-86
2021/05/21 04:17:23;;;;;;;11.00;9.65;;;;;;;10.72;66.97;100043.34;4886187;28;96467;-86
2021/05/21 04:19:49;;;;;;;11.88;10.68;;;;;;;10.72;67.23;100035.47;4869871;28;96656;-86
2021/05/21 04:22:16;;;;;;;7.95;6.22;;;;;;;10.71;67.26;100044.25;4869990;28;99782;-87
2021/05/21 04:24:42;;;;;;;10.23;5.63;;;;;;;10.74;67.39;100046.75;4869372;28;95858;-86
2021/05/21 04:27:08;;;;;;;7.30;5.85;;;;;;;10.75;67.51;100034.47;4870150;28;95999;-86
2021/05/21 04:29:34;;;;;;;10.60;5.65;;;;;;;10.77;67.11;100028.25;4853476;28;99763;-86
2021/05/21 04:32:02;;;;;;;9.52;5.72;;;;;;;10.83;66.77;100012.25;4884951;28;96441;-86
2021/05/21 04:34:30;;;;;;;8.02;5.35;;;;;;;10.91;67.21;100011.97;4904777;28;95987;-87
2021/05/21 04:36:57;;;;;;;7.53;5.18;;;;;;;11.01;66.60;100020.31;4904932;28;97228;-83
2021/05/21 04:39:25;;;;;;;8.35;5.22;;;;;;;11.15;66.48;100025.88;4873268;28;99612;-87
2021/05/21 04:41:51;;;;;;;7.03;5.25;;;;;;;11.29;65.47;100020.03;4888751;28;99828;-87
2021/05/21 04:44:18;;;;;;;7.82;5.20;;;;;;;11.25;65.58;100014.03;4904152;28;96382;-87
2021/05/21 04:46:44;;;;;;;7.57;4.75;;;;;;;11.38;65.33;100024.06;4903421;28;96557;-86
2021/05/21 04:49:09;;;;;;;7.30;5.63;;;;;;;11.36;65.76;100020.63;4886575;28;99731;-86
2021/05/21 04:51:36;;;;;;;7.15;5.28;;;;;;;11.39;65.42;100007.38;4887292;28;99430;-86
2021/05/21 04:54:02;;;;;;;8.88;5.43;;;;;;;11.64;64.89;100002.78;4887991;28;96376;-86
2021/05/21 04:56:28;;;;;;;8.98;5.18;;;;;;;11.88;64.25;100002.66;4872335;28;96493;-86
2021/05/21 04:58:53;;;;;;;6.47;5.30;;;;;;;11.85;63.99;100002.75;4902691;28;101084;-86
2021/05/21 05:01:19;;;;;;;8.82;5.75;;;;;;;11.73;64.41;99997.09;4871859;28;99625;-86
2021/05/21 05:03:46;;;;;;;8.23;5.63;;;;;;;11.84;64.13;99998.41;4888023;28;96331;-86
2021/05/21 05:06:12;;;;;;;7.47;5.32;;;;;;;12.11;63.70;100006.88;4888315;28;96368;-86
2021/05/21 05:08:39;;;;;;;6.38;5.18;;;;;;;12.29;63.38;100000.78;4888321;28;99318;-86
2021/05/21 05:11:44;;;;;;;9.10;5.43;;;;;;;12.84;62.04;100007.84;4888398;28;99237;-86
2021/05/21 05:14:11;;;;;;;7.50;5.70;;;;;;;13.03;61.29;99995.50;4888662;28;96343;-87
2021/05/21 05:16:38;;;;;;;9.43;4.75;;;;;;;13.44;60.67;100003.16;4873653;28;96600;-87
2021/05/21 05:19:04;;;;;;;7.65;5.18;;;;;;;13.88;59.22;99994.72;4906152;28;96965;-87
2021/05/21 05:21:38;;;;;;;8.73;4.65;;;;;;;14.35;58.30;99990.44;4874562;28;99647;-86
2021/05/21 05:39:56;;;;;;;6.43;3.70;;;;;;;17.37;51.62;99974.69;4896076;28;101547;-91
2021/05/21 05:42:22;;;;;;;7.68;4.72;;;;;;;17.98;49.99;99973.16;4899044;28;101324;-88
2021/05/21 05:44:48;;;;;;;7.95;5.03;;;;;;;19.07;47.38;99967.09;4882574;28;96610;-89
2021/05/21 05:47:14;;;;;;;11.07;4.30;;;;;;;19.31;46.49;99965.22;4899902;28;96833;-89
2021/05/21 05:49:39;;;;;;;5.30;4.68;;;;;;;18.69;47.68;99962.75;4898522;28;98540;-88
2021/05/21 05:52:05;;;;;;;5.43;3.70;;;;;;;18.76;48.29;99954.28;4882315;28;101578;-89
2021/05/21 05:54:30;;;;;;;9.13;3.75;;;;;;;18.68;47.84;99948.63;4883252;28;96571;-89
2021/05/21 05:56:57;;;;;;;4.65;3.67;;;;;;;18.90;47.71;99941.75;4883155;28;96992;-89
2021/05/21 05:59:25;;;;;;;4.32;2.90;;;;;;;18.64;48.18;99947.13;4883067;28;100335;-91
2021/05/21 06:01:51;;;;;;;4.63;3.10;;;;;;;18.89;47.69;99945.38;4898408;28;98661;-88
2021/05/21 06:04:16;;;;;;;6.70;3.20;;;;;;;20.42;44.75;99941.47;4883073;28;97034;-88
2021/05/21 06:06:42;;;;;;;4.00;2.90;;;;;;;21.71;41.99;99946.75;4883373;28;97026;-88
2021/05/21 06:09:09;;;;;;;5.28;2.58;;;;;;;21.90;41.68;99933.50;4882161;28;100244;-88
2021/05/21 06:11:34;;;;;;;4.63;2.60;;;;;;;20.03;45.10;99925.03;4898845;28;98422;-89
2021/05/21 06:14:00;;;;;;;4.78;3.20;;;;;;;19.77;45.76;99910.28;4882371;28;97052;-88
2021/05/21 06:16:26;;;;;;;3.00;2.55;;;;;;;19.49;46.13;99920.41;4882917;28;96987;-88
2021/05/21 06:18:51;;;;;;;8.38;3.20;;;;;;;19.39;46.92;99932.72;4866127;28;99552;-88
2021/05/21 06:21:17;;;;;;;4.38;2.70;;;;;;;19.48;47.01;99920.50;4883235;28;100104;-89
2021/05/21 06:23:46;;;;;;;5.53;2.88;;;;;;;20.65;44.35;99912.94;4899231;28;97267;-88
2021/05/21 06:26:31;;;;;;;6.15;2.80;;;;;;;20.20;44.62;99921.03;4882573;28;96853;-88
2021/05/21 06:28:57;;;;;;;4.15;2.90;;;;;;;19.17;46.79;99917.56;4868283;28;101287;-88
2021/05/21 06:31:22;;;;;;;4.00;3.20;;;;;;;18.89;47.49;99908.16;4882676;28;101616;-88
2021/05/21 06:33:49;;;;;;;8.00;3.17;;;;;;;18.75;47.75;99906.50;4864131;28;97316;-84
2021/05/21 06:36:14;;;;;;;3.15;2.80;;;;;;;19.75;45.47;99906.88;4896777;28;97534;-84
2021/05/21 06:38:40;;;;;;;5.68;2.45;;;;;;;20.32;44.48;99903.19;4899042;28;98112;-85
2021/05/21 06:41:07;;;;;;;4.22;2.90;;;;;;;19.82;45.24;99894.78;4884875;28;101282;-84
2021/05/21 06:43:32;;;;;;;6.55;2.72;;;;;;;19.60;45.94;99908.91;4920262;28;96746;-84
2021/05/21 06:45:59;;;;;;;4.93;2.92;;;;;;;19.68;46.25;99909.19;4903411;28;96954;-84
2021/05/21 06:48:29;;;;;;;3.90;2.72;;;;;;;21.91;42.38;99907.63;4919745;28;98569;-83
2021/05/21 06:50:55;;;;;;;5.15;2.40;;;;;;;22.83;40.32;99884.16;4887171;28;101163;-83
2021/05/21 06:53:22;;;;;;;7.60;2.90;;;;;;;23.17;39.87;99886.41;4903087;28;96956;-83
2021/05/21 06:55:49;;;;;;;4.65;2.95;;;;;;;23.24;39.89;99882.19;4887582;28;97131;-84
2021/05/21 06:58:15;;;;;;;4.93;2.30;;;;;;;23.63;37.76;99883.91;4899192;28;98443;-83
2021/05/21 07:00:42;;;;;;;4.53;1.98;;;;;;;24.58;36.72;99875.50;4896819;28;98422;-85
2021/05/21 07:03:08;;;;;;;4.65;2.13;;;;;;;25.61;34.86;99878.47;4897454;28;96806;-83
2021/05/21 07:05:34;;;;;;;4.22;1.95;;;;;;;23.83;36.43;99876.66;4883607;28;96980;-84
2021/05/21 07:07:59;;;;;;;3.55;1.95;;;;;;;22.58;38.59;99874.03;4856758;28;101540;-82
2021/05/21 07:10:25;;;;;;;4.47;2.25;;;;;;;22.09;40.24;99868.56;4870657;28;101574;-85
2021/05/21 07:12:50;;;;;;;8.85;3.58;;;;;;;21.41;41.77;99876.31;4902792;28;96660;-80
2021/05/21 07:15:16;;;;;;;18.63;3.90;;;;;;;21.32;41.70;99869.09;4883776;28;96947;-80
2021/05/21 07:17:42;;;;;;;2.78;1.90;;;;;;;20.95;40.88;99866.03;4866951;28;101730;-84
2021/05/21 07:20:11;;;;;;;12.25;3.65;;;;;;;20.59;42.29;99873.44;4882550;28;101335;-86
2021/05/21 07:22:38;;;;;;;4.50;1.90;;;;;;;20.63;41.67;99856.25;4876764;28;97382;-89
2021/05/21 07:25:05;;;;;;;4.05;2.13;;;;;;;20.74;41.54;99858.00;4880317;28;97117;-88
2021/05/21 07:27:31;;;;;;;10.18;2.65;;;;;;;21.31;41.14;99863.88;4882419;28;100523;-87
2021/05/21 07:29:58;;;;;;;4.20;2.30;;;;;;;21.81;39.94;99846.13;4881406;28;101731;-84
2021/05/21 07:32:23;;;;;;;3.50;2.28;;;;;;;24.69;35.67;99838.69;4884216;28;97126;-87
2021/05/21 07:34:49;;;;;;;3.03;2.10;;;;;;;25.86;34.16;99841.84;4869715;28;97181;-86
2021/05/21 07:37:15;;;;;;;5.88;2.60;;;;;;;26.67;33.15;99831.44;4881095;28;100917;-86
2021/05/21 07:39:41;;;;;;;2.53;1.90;;;;;;;27.72;31.32;99830.44;4883967;28;101197;-89
2021/05/21 07:42:09;;;;;;;3.45;2.75;;;;;;;27.91;30.97;99831.88;4885823;28;96643;-89
2021/05/21 07:44:35;;;;;;;2.75;1.85;;;;;;;28.04;31.45;99825.91;4866417;28;97248;-88
2021/05/21 07:47:01;;;;;;;2.00;1.70;;;;;;;28.37;30.64;99809.53;4896899;28;97661;-90
2021/05/21 07:49:27;;;;;;;4.32;2.15;;;;;;;26.59;32.75;99818.84;4882296;28;101733;-91
2021/05/21 07:51:53;;;;;;;14.82;2.25;;;;;;;27.97;31.38;99800.66;4884917;28;97506;-89
2021/05/21 07:54:20;;;;;;;2.10;1.88;;;;;;;29.09;29.99;99809.97;4878498;28;96956;-89
2021/05/21 07:56:46;;;;;;;4.00;3.65;;;;;;;29.58;29.61;99799.63;4859842;28;101380;-88
2021/05/21 07:59:13;;;;;;;4.18;1.50;;;;;;;28.25;30.35;99794.78;4893209;28;100858;-87
2021/05/21 08:01:39;;;;;;;3.85;1.60;;;;;;;27.30;30.82;99790.31;4883308;28;97249;-87
2021/05/21 08:04:06;;;;;;;3.20;1.45;;;;;;;28.63;28.93;99787.59;4865623;28;97664;-89
2021/05/21 08:06:34;;;;;;;2.78;1.60;;;;;;;29.72;27.65;99801.50;4905086;28;97696;-91
2021/05/21 08:09:05;;;;;;;7.30;6.63;;;;;;;29.88;27.46;99797.75;4899357;28;98078;-90
2021/05/21 08:11:31;;;;;;;5.57;3.83;;;;;;;30.56;26.35;99790.97;4897343;28;97028;-88
2021/05/21 08:13:57;;;;;;;4.88;1.60;;;;;;;30.45;26.91;99791.50;4881977;28;96919;-91
2021/05/21 08:16:26;;;;;;;3.50;1.63;;;;;;;30.41;26.47;99782.94;4878864;28;100146;-87
2021/05/21 08:18:52;;;;;;;2.63;1.10;;;;;;;31.66;25.51;99783.22;4865949;28;98781;-89
2021/05/21 08:21:17;;;;;;;2.92;1.63;;;;;;;31.82;25.31;99779.28;4880010;28;96732;-89
2021/05/21 08:23:43;;;;;;;6.63;1.30;;;;;;;32.56;23.90;99767.59;4897771;28;96908;-90
2021/05/21 08:26:10;;;;;;;2.53;1.50;;;;;;;32.66;24.13;99770.72;4860438;28;99354;-93
2021/05/21 08:28:36;;;;;;;3.55;1.10;;;;;;;32.97;23.92;99769.25;4878133;28;100279;-90
2021/05/21 08:31:03;;;;;;;4.25;1.10;;;;;;;33.70;22.74;99761.75;4877904;28;96801;-89
2021/05/21 08:33:29;;;;;;;7.05;1.65;;;;;;;33.81;22.45;99754.78;4867525;28;97055;-90
2021/05/21 08:35:55;;;;;;;6.82;1.55;;;;;;;32.63;23.70;99741.25;4897692;28;97396;-88
2021/05/21 08:38:21;;;;;;;12.35;2.30;;;;;;;32.52;23.61;99750.03;4879041;28;99915;-89
2021/05/21 08:40:48;;;;;;;3.92;1.30;;;;;;;32.61;23.44;99733.34;4865672;28;97130;-88
2021/05/21 08:43:14;;;;;;;7.00;1.42;;;;;;;32.23;23.67;99738.50;4880152;28;97335;-88
2021/05/21 08:45:41;;;;;;;5.25;1.52;;;;;;;31.58;23.58;99732.69;4885982;28;100069;-89
2021/05/21 08:48:19;;;;;;;7.85;6.18;;;;;;;31.36;23.57;99729.28;4918535;28;97626;-88
2021/05/21 08:50:45;;;;;;;8.90;2.40;;;;;;;30.51;25.23;99733.84;4877350;28;97098;-90
2021/05/21 08:53:12;;;;;;;3.53;1.50;;;;;;;30.50;24.57;99724.06;4865203;28;97457;-89
2021/05/21 08:55:38;;;;;;;15.82;2.13;;;;;;;31.21;24.06;99728.53;4877541;28;97588;-88
2021/05/21 08:58:10;;;;;;;9.75;1.95;;;;;;;31.20;24.44;99716.84;4879310;28;100121;-88
2021/05/21 09:00:37;;;;;;;5.80;2.00;;;;;;;30.94;24.71;99719.41;4883326;28;96801;-85
2021/05/21 09:03:16;;;;;;;8.32;1.40;;;;;;;30.84;24.42;99719.78;4872476;28;96886;-85
2021/05/21 09:06:20;;;;;;;2.25;1.02;;;;;;;30.53;24.48;99702.00;4888898;28;98407;-85
2021/05/21 09:08:49;;;;;;;7.43;1.23;;;;;;;30.06;25.15;99700.75;4892109;28;97582;-84
2021/05/21 09:11:31;;;;;;;1.98;1.08;;;;;;;29.40;25.68;99687.31;4895847;28;97123;-85
2021/05/21 09:14:02;;;;;;;3.35;1.20;;;;;;;29.32;26.29;99695.53;4908176;28;97102;-86
2021/05/21 09:16:30;;;;;;;5.80;1.60;;;;;;;28.91;25.67;99697.84;4881847;28;101013;-84
2021/05/21 09:19:00;;;;;;;7.10;1.40;;;;;;;28.21;26.36;99694.44;4881693;28;101894;-85
2021/05/21 09:21:28;;;;;;;4.88;1.30;;;;;;;27.50;27.27;99686.47;4900566;28;97304;-84
2021/05/21 09:24:03;;;;;;;4.18;1.38;;;;;;;27.31;27.99;99693.16;4909139;28;97345;-85
2021/05/21 09:26:40;;;;;;;9.07;1.77;;;;;;;27.52;27.95;99676.38;4862607;28;100779;-85
2021/05/21 09:29:07;;;;;;;10.40;1.67;;;;;;;27.01;27.33;99683.97;4881958;28;101969;-86
2021/05/21 09:31:45;;;;;;;4.03;1.13;;;;;;;26.60;28.41;99681.41;4901452;28;97053;-85
2021/05/21 09:34:11;;;;;;;18.90;1.98;;;;;;;26.71;28.71;99679.38;4900481;28;97499;-85
2021/05/21 09:36:38;;;;;;;4.90;1.20;;;;;;;26.56;28.77;99669.31;4900557;28;100220;-85
2021/05/21 09:39:10;;;;;;;16.23;2.72;;;;;;;26.40;29.28;99658.53;4884252;28;101737;-86
2021/05/21 09:41:47;;;;;;;9.05;1.83;;;;;;;26.80;29.17;99670.25;4876607;28;96700;-85
2021/05/21 09:44:14;;;;;;;4.38;1.27;;;;;;;26.18;29.05;99662.75;4876452;28;97101;-85
2021/05/21 09:46:41;;;;;;;6.57;1.52;;;;;;;26.11;28.99;99657.19;4867141;28;101954;-85
2021/05/21 09:49:33;;;;;;;3.42;1.10;;;;;;;25.86;30.05;99655.50;4898546;28;101346;-86
2021/05/21 09:52:00;;;;;;;5.65;1.08;;;;;;;25.99;29.89;99657.72;4873339;28;96684;-87
2021/05/21 09:54:28;;;;;;;3.25;1.15;;;;;;;25.92;29.67;99644.09;4891227;28;96870;-86
2021/05/21 09:57:12;;;;;;;1.83;0.95;;;;;;;25.99;29.89;99647.78;4878613;28;102281;-85
2021/05/21 09:59:41;;;;;;;6.28;1.20;;;;;;;25.77;30.37;99637.66;4910905;28;98357;-86
2021/05/21 10:02:24;;;;;;;1.35;1.10;;;;;;;25.64;30.16;99620.19;4890884;28;97196;-85
2021/05/21 10:04:50;;;;;;;2.75;1.10;;;;;;;25.54;30.93;99635.63;4898767;28;96803;-85
2021/05/21 10:07:17;;;;;;;4.43;1.30;;;;;;;25.23;31.56;99627.31;4878124;28;97989;-85
2021/05/21 10:09:43;;;;;;;1.88;1.20;;;;;;;24.99;31.69;99623.53;4897768;28;97831;-85
2021/05/21 10:12:09;;;;;;;3.22;1.20;;;;;;;24.83;31.78;99618.06;4890822;28;97058;-85
2021/05/21 10:14:34;;;;;;;7.78;1.67;;;;;;;24.65;32.54;99620.00;4905432;28;97009;-86
2021/05/21 10:17:01;;;;;;;1.55;0.88;;;;;;;24.25;32.49;99619.56;4884110;28;97932;-86
2021/05/21 10:19:28;;;;;;;2.92;0.85;;;;;;;24.04;32.41;99606.50;4884648;28;97799;-86
2021/05/21 10:21:54;;;;;;;2.28;1.10;;;;;;;23.87;33.15;99604.69;4909050;28;97075;-86
2021/05/21 10:24:21;;;;;;;4.20;1.05;;;;;;;23.76;32.84;99600.41;4894821;28;96784;-85
2021/05/21 10:26:51;;;;;;;2.47;0.95;;;;;;;23.17;33.49;99588.44;4911090;28;98102;-85
2021/05/21 10:29:32;;;;;;;1.60;0.80;;;;;;;22.87;33.90;99581.53;4900456;28;97893;-85
2021/05/21 10:32:12;;;;;;;4.03;0.90;;;;;;;22.69;34.36;99593.03;4901391;28;96701;-86
2021/05/21 10:34:41;;;;;;;3.53;1.10;;;;;;;22.92;33.07;99580.09;4903891;28;97154;-86
2021/05/21 10:37:36;;;;;;;0.85;0.60;;;;;;;22.91;32.67;99577.56;4896690;28;97180;-87
2021/05/21 10:40:32;;;;;;;2.10;0.70;;;;;;;22.94;32.37;99564.72;4900489;28;97085;-86
2021/05/21 10:43:17;;;;;;;6.57;1.65;;;;;;;22.62;32.43;99565.16;4906078;28;96812;-84
2021/05/21 10:46:01;;;;;;;6.68;1.40;;;;;;;22.59;32.88;99577.00;4897399;28;97462;-84
2021/05/21 10:48:29;;;;;;;1.48;0.52;;;;;;;22.35;32.88;99574.84;4889357;28;101540;-84
2021/05/21 10:51:13;;;;;;;2.92;0.93;;;;;;;22.28;32.86;99575.56;4888024;28;101373;-84
2021/05/21 10:53:41;;;;;;;1.50;0.80;;;;;;;22.36;33.51;99578.34;4882010;28;97385;-86
2021/05/21 10:56:07;;;;;;;8.45;2.03;;;;;;;22.57;33.01;99573.66;4883279;28;96936;-85
2021/05/21 10:58:34;;;;;;;2.17;1.30;;;;;;;22.68;33.05;99572.59;4919854;28;98554;-85
2021/05/21 11:01:10;;;;;;;5.60;0.77;;;;;;;22.69;32.82;99574.31;4887287;28;101165;-87
2021/05/21 11:04:01;;;;;;;22.73;1.73;;;;;;;22.67;33.31;99575.44;4871874;28;97367;-85
2021/05/21 11:06:51;;;;;;;3.80;1.00;;;;;;;22.34;33.63;99578.50;4885049;28;96834;-85
2021/05/21 11:09:19;;;;;;;3.30;0.90;;;;;;;22.41;33.72;99572.59;4891368;28;97736;-85
2021/05/21 11:12:00;;;;;;;6.78;1.40;;;;;;;22.80;34.38;99563.38;4883166;28;101627;-85
2021/05/21 11:14:26;;;;;;;12.20;2.40;;;;;;;23.18;34.06;99579.38;4883667;28;96793;-85
2021/05/21 11:16:52;;;;;;;17.20;2.33;;;;;;;23.26;33.13;99560.75;4883275;28;96979;-83
2021/05/21 11:19:22;;;;;;;11.77;1.42;;;;;;;23.22;33.19;99554.84;4870437;28;101313;-85
2021/05/21 11:21:54;;;;;;;3.05;1.50;;;;;;;23.08;32.97;99547.34;4879517;28;98290;-86
2021/05/21 11:24:34;;;;;;;4.90;1.10;;;;;;;23.09;33.40;99537.47;4863828;28;97421;-82
2021/05/21 11:27:03;;;;;;;20.03;2.50;;;;;;;23.14;33.53;99538.69;4879677;28;97223;-81
2021/05/21 11:29:28;;;;;;;11.98;1.63;;;;;;;23.18;33.88;99531.22;4879181;28;101845;-82
2021/05/21 11:31:54;;;;;;;5.18;0.95;;;;;;;23.11;34.38;99532.81;4877546;28;101344;-82
2021/05/21 11:34:20;;;;;;;17.85;3.58;;;;;;;23.21;34.15;99526.41;4880401;28;97108;-82
2021/05/21 11:36:45;;;;;;;8.02;2.28;;;;;;;23.22;34.01;99517.38;4895637;28;96863;-81
2021/05/21 11:39:11;;;;;;;3.53;0.73;;;;;;;23.27;34.20;99520.44;4876492;28;102128;-81
2021/05/21 11:41:43;;;;;;;5.43;1.20;;;;;;;23.26;33.50;99517.91;4894378;28;97912;-82
2021/05/21 11:44:10;;;;;;;5.60;1.17;;;;;;;23.16;33.20;99511.81;4879802;28;97671;-83
2021/05/21 11:46:45;;;;;;;3.88;1.17;;;;;;;23.26;32.40;99517.91;4882818;28;97156;-82
2021/05/21 11:49:19;;;;;;;5.25;0.70;;;;;;;23.18;32.05;99525.84;4877013;28;98202;-87
2021/05/21 11:51:52;;;;;;;7.18;0.90;;;;;;;23.11;32.20;99503.38;4894000;28;101340;-87
2021/05/21 11:54:18;;;;;;;4.72;0.80;;;;;;;23.04;32.23;99505.84;4900103;28;96729;-89
2021/05/21 11:56:44;;;;;;;0.85;0.77;;;;;;;23.11;32.28;99500.69;4875169;28;96946;-90
2021/05/21 11:59:11;;;;;;;3.72;0.82;;;;;;;23.11;32.07;99490.84;4902512;28;101654;-87